Time;durP1;ratioP1;P1;durP2;ratioP2;P2;SDS_P1;SDS_P2;PMS_P1;PMS_P2;Temp;Humidity;BMP_temperature;BMP_pressure;BME280_temperature;BME280_humidity;BME280_pressure;Samples;Min_cycle;Max_cycle;Signal;HPM_P1;HPM_P2
2022/06/19 00:01:27;;;;;;;36.42;5.55;;;14.10;99.90;;;;;;5090079;28;20052;-59
2022/06/19 00:03:55;;;;;;;27.17;5.13;;;14.80;99.90;;;;;;5091877;28;20039;-59
2022/06/19 00:06:21;;;;;;;23.92;5.25;;;14.20;99.90;;;;;;5092430;28;20062;-60
2022/06/19 00:08:48;;;;;;;28.23;5.80;;;14.10;99.90;;;;;;5092243;28;20040;-60
2022/06/19 00:11:18;;;;;;;26.80;5.55;;;14.60;99.90;;;;;;5092181;28;20491;-60
2022/06/19 00:13:45;;;;;;;29.02;5.40;;;14.20;99.90;;;;;;5092301;28;20047;-60
2022/06/19 00:16:12;;;;;;;30.90;5.00;;;14.30;99.90;;;;;;5092294;28;20510;-59
2022/06/19 00:18:40;;;;;;;24.13;4.80;;;14.60;99.90;;;;;;5092119;28;20040;-59
2022/06/19 00:21:07;;;;;;;28.15;5.15;;;14.10;99.90;;;;;;5091918;28;20040;-59
2022/06/19 00:23:34;;;;;;;27.13;5.13;;;14.20;99.90;;;;;;5092191;28;20047;-59
2022/06/19 00:26:00;;;;;;;23.75;4.68;;;;;;;;;;5091731;28;20044;-59
2022/06/19 00:28:26;;;;;;;24.80;4.65;;;14.30;99.90;;;;;;5074011;28;20465;-59
2022/06/19 00:30:51;;;;;;;25.67;5.18;;;14.10;99.90;;;;;;5091492;28;20043;-60
2022/06/19 00:33:17;;;;;;;30.98;5.13;;;14.20;99.90;;;;;;5091726;28;20048;-59
2022/06/19 00:35:43;;;;;;;24.75;4.63;;;14.00;99.90;;;;;;5073555;28;20056;-59
2022/06/19 00:38:10;;;;;;;24.17;4.65;;;14.10;99.90;;;;;;5105558;22;20051;-79
2022/06/19 00:40:36;;;;;;;24.15;4.70;;;13.90;99.90;;;;;;5038787;28;20486;-78
2022/06/19 00:43:02;;;;;;;29.25;5.00;;;14.70;99.90;;;;;;5073694;28;20071;-78
2022/06/19 00:45:38;;;;;;;24.67;4.75;;;14.30;99.90;;;;;;5073569;28;20483;-78
2022/06/19 00:48:21;;;;;;;30.52;5.18;;;14.10;99.90;;;;;;5055368;28;20072;-78
2022/06/19 00:50:49;;;;;;;25.63;4.65;;;14.00;99.90;;;;;;5055496;28;20048;-78
2022/06/19 00:53:22;;;;;;;29.98;5.10;;;13.80;99.90;;;;;;5055618;28;20646;-79
2022/06/19 00:55:50;;;;;;;19.20;4.65;;;17.40;99.90;;;;;;5055445;28;20648;-79
2022/06/19 00:58:50;;;;;;;24.70;4.65;;;13.90;99.90;;;;;;5055594;28;20120;-79
2022/06/19 01:04:21;;;;;;;21.33;4.28;;;13.20;99.90;;;;;;4999979;28;20433;-58
2022/06/19 01:06:48;;;;;;;26.17;4.95;;;14.00;99.90;;;;;;5003220;28;20076;-57
2022/06/19 01:09:14;;;;;;;27.63;4.97;;;14.10;99.90;;;;;;5031966;28;20041;-57
2022/06/19 01:11:40;;;;;;;31.27;4.90;;;14.00;99.90;;;;;;5014179;28;20488;-58
2022/06/19 01:14:10;;;;;;;26.85;4.38;;;14.20;99.90;;;;;;5014530;28;20092;-58
2022/06/19 01:16:36;;;;;;;26.98;4.60;;;14.00;99.90;;;;;;5014244;28;20108;-52
2022/06/19 01:19:03;;;;;;;28.55;4.75;;;14.30;99.90;;;;;;5001740;28;20054;-53
2022/06/19 01:21:51;;;;;;;24.35;4.55;;;14.00;99.90;;;;;;4994742;28;20054;-52
2022/06/19 01:24:32;;;;;;;21.95;4.65;;;14.20;99.90;;;;;;4994680;28;20109;-53
2022/06/19 01:27:01;;;;;;;26.05;4.07;;;14.10;99.90;;;;;;4977001;28;20060;-50
2022/06/19 01:29:31;;;;;;;23.52;4.70;;;14.20;99.90;;;;;;4994583;28;20058;-57
2022/06/19 01:31:59;;;;;;;28.67;5.00;;;14.20;99.90;;;;;;4994786;28;20050;-59
2022/06/19 01:34:29;;;;;;;27.05;4.85;;;14.00;99.90;;;;;;4994472;28;20050;-57
2022/06/19 01:37:17;;;;;;;22.45;4.10;;;14.00;99.90;;;;;;4995615;28;20056;-57
2022/06/19 01:39:49;;;;;;;24.67;4.57;;;14.00;99.90;;;;;;5013487;28;20042;-58
2022/06/19 01:42:15;;;;;;;33.03;5.15;;;14.00;99.90;;;;;;4996674;28;20050;-58
2022/06/19 01:44:43;;;;;;;25.48;4.03;;;14.10;99.90;;;;;;5013826;28;20115;-57
2022/06/19 01:47:10;;;;;;;23.27;4.40;;;13.70;99.90;;;;;;5014047;28;20056;-57
2022/06/19 01:49:38;;;;;;;25.42;4.50;;;14.50;99.90;;;;;;5013869;28;20050;-58
2022/06/19 01:52:05;;;;;;;21.55;4.18;;;13.90;99.90;;;;;;5012970;28;20152;-58
2022/06/19 01:54:44;;;;;;;21.60;4.40;;;14.00;99.90;;;;;;5013859;28;20050;-58
2022/06/19 01:57:11;;;;;;;23.05;3.88;;;13.60;99.90;;;;;;5013536;28;20046;-58
2022/06/19 01:59:41;;;;;;;23.08;4.35;;;14.40;99.90;;;;;;5013593;28;20045;-58
2022/06/19 02:02:09;;;;;;;26.45;4.15;;;13.60;99.90;;;;;;5013617;28;20045;-57
2022/06/19 02:04:35;;;;;;;20.63;3.63;;;14.10;99.90;;;;;;5013378;28;20046;-59
2022/06/19 02:07:05;;;;;;;24.77;4.30;;;14.10;99.90;;;;;;5013687;28;20060;-58
2022/06/19 02:09:31;;;;;;;20.67;3.90;;;14.20;99.90;;;;;;5007099;28;20054;-58
2022/06/19 02:11:57;;;;;;;19.23;3.60;;;14.30;99.90;;;;;;4994152;28;20371;-57
2022/06/19 02:14:23;;;;;;;22.58;4.15;;;14.20;99.90;;;;;;4994101;28;20129;-58
2022/06/19 02:16:50;;;;;;;22.90;3.58;;;14.10;99.90;;;;;;4993798;28;20046;-58
2022/06/19 02:19:18;;;;;;;14.30;3.15;;;14.20;99.90;;;;;;4993666;28;20073;-58
2022/06/19 02:21:49;;;;;;;19.55;3.28;;;14.40;99.90;;;;;;4993718;28;20522;-57
2022/06/19 02:24:19;;;;;;;17.33;3.17;;;14.50;99.90;;;;;;4993795;28;20042;-57
2022/06/19 02:26:45;;;;;;;14.65;3.20;;;13.80;99.90;;;;;;4976303;28;20050;-58
2022/06/19 02:29:16;;;;;;;17.20;3.25;;;14.20;99.90;;;;;;4993707;28;20046;-58
2022/06/19 02:31:44;;;;;;;19.20;3.53;;;14.80;99.90;;;;;;4993589;28;20046;-57
2022/06/19 02:34:27;;;;;;;18.08;3.63;;;14.30;99.90;;;;;;4993902;28;20073;-58
2022/06/19 02:36:59;;;;;;;13.45;2.80;;;14.50;99.90;;;;;;5006457;28;20041;-58
2022/06/19 02:39:42;;;;;;;16.83;3.28;;;14.30;99.90;;;;;;5033195;28;20046;-53
2022/06/19 02:42:13;;;;;;;14.10;3.50;;;14.30;99.90;;;;;;5031658;28;20045;-52
2022/06/19 02:44:41;;;;;;;14.25;3.08;;;14.20;99.90;;;;;;5033237;28;20128;-51
2022/06/19 02:47:08;;;;;;;13.38;3.22;;;14.20;99.90;;;;;;5032995;28;20045;-53
2022/06/19 02:49:34;;;;;;;17.98;3.28;;;14.20;99.90;;;;;;5032964;28;20115;-52
2022/06/19 02:52:01;;;;;;;11.88;2.97;;;14.20;99.90;;;;;;5032904;28;20056;-53
2022/06/19 02:54:27;;;;;;;10.23;2.65;;;14.30;99.90;;;;;;5032753;28;20050;-52
2022/06/19 02:56:53;;;;;;;16.65;3.25;;;14.60;99.90;;;;;;5032763;28;20045;-50
2022/06/19 02:59:19;;;;;;;15.02;3.13;;;14.20;99.90;;;;;;5032804;28;20477;-52
2022/06/19 03:01:45;;;;;;;14.48;3.10;;;14.20;99.90;;;;;;5015526;28;20053;-51
2022/06/19 03:04:18;;;;;;;15.48;3.50;;;14.30;99.90;;;;;;5035938;28;20138;-50
2022/06/19 03:06:44;;;;;;;21.42;3.70;;;14.50;99.90;;;;;;5036469;28;20045;-48
2022/06/19 03:09:10;;;;;;;14.40;3.17;;;14.20;99.90;;;;;;5018766;28;20463;-50
2022/06/19 03:11:35;;;;;;;15.63;3.42;;;14.40;99.90;;;;;;5036322;28;20164;-53
2022/06/19 03:14:01;;;;;;;18.08;3.28;;;14.00;99.90;;;;;;5018614;28;20057;-51
2022/06/19 03:16:27;;;;;;;17.75;3.63;;;13.90;99.90;;;;;;5036296;28;20053;-50
2022/06/19 03:18:53;;;;;;;18.67;3.63;;;14.30;99.90;;;;;;5036347;28;20116;-49
2022/06/19 03:21:19;;;;;;;19.63;3.72;;;14.30;99.90;;;;;;5036118;28;20133;-51
2022/06/19 03:23:45;;;;;;;17.00;3.65;;;14.30;99.90;;;;;;5036322;28;20076;-58
2022/06/19 03:26:11;;;;;;;19.95;3.58;;;14.50;99.90;;;;;;5036012;28;20485;-58
2022/06/19 03:28:36;;;;;;;20.27;3.58;;;14.30;99.90;;;;;;5036219;28;20054;-58
2022/06/19 03:31:02;;;;;;;19.92;3.85;;;14.50;99.90;;;;;;5036205;28;20160;-58
2022/06/19 03:33:28;;;;;;;24.00;4.22;;;14.50;99.90;;;;;;5035911;28;20139;-58
2022/06/19 03:35:54;;;;;;;18.10;3.72;;;13.80;99.90;;;;;;5001756;28;20103;-58
2022/06/19 03:38:21;;;;;;;19.15;3.60;;;14.30;99.90;;;;;;5018162;28;20399;-58
2022/06/19 03:40:46;;;;;;;19.50;3.50;;;14.40;99.90;;;;;;5018074;28;20378;-58
2022/06/19 03:43:12;;;;;;;21.23;3.58;;;14.30;99.90;;;;;;5035619;28;20053;-58
2022/06/19 03:45:38;;;;;;;25.00;3.88;;;14.50;99.90;;;;;;5035754;28;20049;-58
2022/06/19 03:48:04;;;;;;;21.20;3.55;;;14.50;99.90;;;;;;5035569;28;20527;-59
2022/06/19 03:50:29;;;;;;;18.52;3.60;;;14.70;99.90;;;;;;5035733;28;20049;-59
2022/06/19 03:52:55;;;;;;;21.10;3.88;;;14.30;99.90;;;;;;5017767;28;20171;-58
2022/06/19 03:55:21;;;;;;;18.95;3.78;;;14.20;99.90;;;;;;5035702;28;20215;-58
2022/06/19 03:57:46;;;;;;;17.67;3.70;;;14.30;99.90;;;;;;5035301;28;20065;-58
2022/06/19 04:00:15;;;;;;;24.42;3.60;;;14.10;99.90;;;;;;5035460;28;20049;-57
2022/06/19 04:02:43;;;;;;;25.30;3.95;;;14.00;99.90;;;;;;5035329;28;20049;-58
2022/06/19 04:05:09;;;;;;;21.05;3.50;;;14.10;99.90;;;;;;5035362;28;20073;-58
2022/06/19 04:07:42;;;;;;;18.55;3.45;;;14.10;99.90;;;;;;5017552;28;20543;-58
2022/06/19 04:10:08;;;;;;;20.58;3.72;;;14.10;99.90;;;;;;5035561;28;20060;-58
2022/06/19 04:12:34;;;;;;;22.17;4.07;;;14.50;99.90;;;;;;5035104;28;20099;-58
2022/06/19 04:15:00;;;;;;;21.02;4.15;;;14.40;99.90;;;;;;5034572;28;20045;-59
2022/06/19 04:17:25;;;;;;;16.73;3.83;;;14.10;99.90;;;;;;5031194;28;20042;-58
2022/06/19 04:19:52;;;;;;;18.90;3.58;;;14.10;99.90;;;;;;5015065;28;20049;-58
2022/06/19 04:22:18;;;;;;;18.73;3.63;;;14.20;99.90;;;;;;5015388;28;20046;-58
2022/06/19 04:24:43;;;;;;;20.90;4.00;;;14.20;99.90;;;;;;5015320;28;20042;-58
2022/06/19 04:27:09;;;;;;;22.27;4.03;;;14.20;99.90;;;;;;5015384;28;20085;-57
2022/06/19 04:29:36;;;;;;;21.08;4.07;;;14.40;99.90;;;;;;5015155;28;20129;-58
2022/06/19 04:32:02;;;;;;;18.45;3.75;;;14.10;99.90;;;;;;5014839;28;20064;-58
2022/06/19 04:34:28;;;;;;;22.35;3.47;;;14.20;99.90;;;;;;5014865;28;20050;-58
2022/06/19 04:36:54;;;;;;;20.85;3.78;;;14.70;99.90;;;;;;5015097;28;20072;-57
2022/06/19 04:39:20;;;;;;;19.30;3.40;;;14.20;99.90;;;;;;5015138;28;20038;-58
2022/06/19 04:41:46;;;;;;;21.02;3.30;;;14.70;99.90;;;;;;5014921;28;20050;-58
2022/06/19 04:44:16;;;;;;;20.50;4.00;;;14.40;99.90;;;;;;5014837;28;20159;-58
2022/06/19 04:46:43;;;;;;;19.60;3.45;;;14.60;99.90;;;;;;5015032;28;20050;-57
2022/06/19 04:49:10;;;;;;;16.10;3.45;;;13.90;99.90;;;;;;5010863;28;20053;-58
2022/06/19 04:51:36;;;;;;;19.77;3.63;;;14.60;99.90;;;;;;5014651;28;20481;-58
2022/06/19 04:54:01;;;;;;;22.98;3.70;;;14.80;99.90;;;;;;5014712;28;20052;-58
2022/06/19 04:56:27;;;;;;;21.20;4.10;;;14.60;99.90;;;;;;5014538;28;20124;-58
2022/06/19 04:58:53;;;;;;;19.65;3.30;;;14.10;99.90;;;;;;5014478;28;20477;-58
2022/06/19 05:01:21;;;;;;;18.05;3.33;;;14.40;99.90;;;;;;5014764;28;20046;-57
2022/06/19 05:03:47;;;;;;;17.70;3.20;;;14.50;99.90;;;;;;5029249;28;20045;-53
2022/06/19 05:06:12;;;;;;;18.23;3.35;;;14.50;99.90;;;;;;5034054;28;20056;-59
2022/06/19 05:08:38;;;;;;;18.00;3.03;;;14.70;99.90;;;;;;5016759;28;20049;-59
2022/06/19 05:11:04;;;;;;;13.55;2.80;;;15.70;99.90;;;;;;5034041;28;20049;-58
2022/06/19 05:13:29;;;;;;;11.80;2.83;;;16.40;99.90;;;;;;5033916;28;20053;-58
2022/06/19 05:16:05;;;;;;;13.43;2.70;;;16.30;99.90;;;;;;5033878;28;20053;-58
2022/06/19 05:18:31;;;;;;;11.77;2.80;;;18.00;99.90;;;;;;5033753;28;20054;-54
2022/06/19 05:21:01;;;;;;;12.45;2.65;;;18.60;99.90;;;;;;5033817;28;20046;-52
2022/06/19 05:23:28;;;;;;;9.13;2.78;;;19.30;99.90;;;;;;5033751;28;20056;-55
2022/06/19 05:26:07;;;;;;;10.52;2.50;;;19.20;97.70;;;;;;5032973;28;20143;-53
2022/06/19 05:28:34;;;;;;;11.73;2.53;;;20.00;98.40;;;;;;5033697;28;20103;-52
2022/06/19 05:31:01;;;;;;;13.50;2.60;;;20.20;93.10;;;;;;5033418;28;20053;-60
2022/06/19 05:33:28;;;;;;;10.90;2.80;;;19.80;93.60;;;;;;5016134;28;20135;-59
2022/06/19 05:35:54;;;;;;;11.05;2.70;;;19.30;95.80;;;;;;5015863;28;20045;-59
2022/06/19 05:38:20;;;;;;;10.90;2.42;;;18.80;94.40;;;;;;5015984;28;20045;-58
2022/06/19 05:40:48;;;;;;;12.70;2.47;;;19.00;88.20;;;;;;5033486;28;20103;-58
2022/06/19 05:43:14;;;;;;;8.90;2.40;;;18.40;96.20;;;;;;5033328;28;20045;-59
2022/06/19 05:45:40;;;;;;;12.73;2.50;;;18.20;90.00;;;;;;5033369;28;20037;-58
2022/06/19 05:48:05;;;;;;;9.93;3.38;;;17.10;94.90;;;;;;5033568;28;20037;-58
2022/06/19 05:50:31;;;;;;;10.75;2.25;;;17.60;90.30;;;;;;5033467;28;20048;-57
2022/06/19 05:52:57;;;;;;;10.57;2.30;;;16.30;96.60;;;;;;5033402;28;20092;-58
2022/06/19 05:55:23;;;;;;;11.95;2.55;;;16.90;92.10;;;;;;5033559;28;20492;-58
2022/06/19 05:57:48;;;;;;;10.85;2.40;;;16.60;93.90;;;;;;5033028;28;20401;-58
2022/06/19 06:00:14;;;;;;;10.93;2.60;;;16.40;96.70;;;;;;5033429;28;20485;-58
2022/06/19 06:02:41;;;;;;;9.63;2.30;;;16.20;98.10;;;;;;5015624;28;20123;-57
2022/06/19 06:05:07;;;;;;;6.45;2.20;;;16.10;99.10;;;;;;5033122;28;20099;-51
2022/06/19 06:07:33;;;;;;;10.00;2.38;;;16.00;99.90;;;;;;5032970;28;20493;-52
2022/06/19 06:09:59;;;;;;;10.27;2.58;;;16.00;99.90;;;;;;5033024;28;20056;-53
2022/06/19 06:12:24;;;;;;;11.15;2.50;;;15.90;99.90;;;;;;5032932;28;20045;-52
2022/06/19 06:14:50;;;;;;;11.40;2.35;;;15.90;99.90;;;;;;5033280;28;20054;-52
2022/06/19 06:17:16;;;;;;;14.05;2.67;;;16.00;99.90;;;;;;5032927;28;20088;-52
2022/06/19 06:19:41;;;;;;;11.27;2.80;;;16.10;99.90;;;;;;5033089;28;20049;-51
2022/06/19 06:22:07;;;;;;;13.52;2.85;;;16.20;99.90;;;;;;5033138;28;20068;-50
2022/06/19 06:24:33;;;;;;;15.20;2.92;;;16.30;99.90;;;;;;5033103;28;20420;-52
2022/06/19 06:27:02;;;;;;;10.85;2.60;;;16.30;99.90;;;;;;5032900;28;20484;-52
2022/06/19 06:29:28;;;;;;;16.13;3.10;;;16.30;99.90;;;;;;5032930;28;20091;-58
2022/06/19 06:31:56;;;;;;;13.75;2.70;;;16.20;99.90;;;;;;5033122;28;20077;-59
2022/06/19 06:34:22;;;;;;;19.70;2.88;;;16.10;99.90;;;;;;5033325;28;20085;-57
2022/06/19 06:36:47;;;;;;;16.02;3.15;;;16.00;99.90;;;;;;5032938;28;20084;-58
2022/06/19 06:39:13;;;;;;;14.80;3.22;;;15.80;99.90;;;;;;5036495;28;20045;-58
2022/06/19 06:41:39;;;;;;;11.57;2.53;;;15.70;99.90;;;;;;5036703;28;20468;-58
2022/06/19 06:44:04;;;;;;;17.25;3.70;;;15.50;99.90;;;;;;5036883;28;20377;-58
2022/06/19 06:46:30;;;;;;;13.95;2.92;;;15.40;99.90;;;;;;5036996;28;20148;-58
2022/06/19 06:48:59;;;;;;;13.55;3.17;;;15.40;99.90;;;;;;5019064;28;20128;-58
2022/06/19 06:51:27;;;;;;;14.25;2.90;;;15.40;99.90;;;;;;5036709;28;20116;-59
2022/06/19 06:53:54;;;;;;;14.70;3.10;;;15.40;99.90;;;;;;5036648;28;20065;-59
2022/06/19 06:56:20;;;;;;;14.10;3.00;;;14.90;99.90;;;;;;5036427;28;20056;-58
2022/06/19 06:58:46;;;;;;;10.07;2.78;;;;;;;;;;5036722;28;20465;-59
2022/06/19 07:01:19;;;;;;;16.63;3.40;;;15.30;99.90;;;;;;5036407;28;20084;-58
2022/06/19 07:03:46;;;;;;;12.57;3.00;;;15.70;99.90;;;;;;5036787;28;20126;-58
2022/06/19 07:06:12;;;;;;;12.77;2.97;;;14.70;99.90;;;;;;5036570;28;20052;-59
2022/06/19 07:08:38;;;;;;;16.10;3.20;;;15.20;99.90;;;;;;5036168;28;20050;-59
2022/06/19 07:11:04;;;;;;;15.30;3.50;;;13.80;99.90;;;;;;5036349;28;20515;-51
2022/06/19 07:13:30;;;;;;;14.50;3.05;;;15.10;99.90;;;;;;5018577;28;20054;-53
2022/06/19 07:15:56;;;;;;;13.98;2.63;;;15.10;99.90;;;;;;5036282;28;20101;-52
2022/06/19 07:18:22;;;;;;;12.07;2.63;;;14.90;99.90;;;;;;5036612;28;20050;-54
2022/06/19 07:20:47;;;;;;;15.02;3.10;;;15.30;99.90;;;;;;5036056;28;20049;-52
2022/06/19 07:23:13;;;;;;;16.17;3.33;;;14.50;99.90;;;;;;5036196;28;20041;-50
2022/06/19 07:25:39;;;;;;;14.38;3.35;;;15.10;99.90;;;;;;5036224;28;20480;-51
2022/06/19 07:28:05;;;;;;;17.50;2.95;;;14.30;99.90;;;;;;5035961;28;20053;-51
2022/06/19 07:30:30;;;;;;;15.20;2.95;;;15.00;99.90;;;;;;5036087;28;20121;-53
2022/06/19 07:32:57;;;;;;;13.40;2.90;;;15.40;99.90;;;;;;5035887;28;20428;-53
2022/06/19 07:35:23;;;;;;;15.70;3.03;;;15.00;99.90;;;;;;5020316;28;20050;-54
2022/06/19 07:37:51;;;;;;;14.77;3.30;;;15.00;99.90;;;;;;5014057;28;20520;-53
2022/06/19 07:40:20;;;;;;;13.52;2.95;;;15.00;99.90;;;;;;5013611;28;20042;-53
2022/06/19 07:42:46;;;;;;;13.48;3.20;;;15.60;99.90;;;;;;5014699;28;20397;-58
2022/06/19 07:45:13;;;;;;;12.55;2.90;;;14.90;99.90;;;;;;5014626;28;20060;-58
2022/06/19 07:50:24;;;;;;;14.97;2.83;;;15.00;99.90;;;;;;5001571;28;20519;-59
2022/06/19 07:52:51;;;;;;;14.73;2.90;;;15.10;99.90;;;;;;5014844;28;20120;-59
2022/06/19 07:55:22;;;;;;;11.25;3.00;;;15.00;99.90;;;;;;5014742;28;20046;-57
2022/06/19 07:57:48;;;;;;;13.23;2.90;;;15.20;99.90;;;;;;5015996;28;20050;-60
2022/06/19 08:00:20;;;;;;;14.52;3.10;;;15.10;99.90;;;;;;4998277;28;20042;-59
2022/06/19 08:02:48;;;;;;;18.02;3.47;;;15.20;99.90;;;;;;5015427;28;20073;-59
2022/06/19 08:05:15;;;;;;;14.25;3.08;;;15.40;99.90;;;;;;4998299;28;20049;-53
2022/06/19 08:07:42;;;;;;;15.75;3.28;;;15.30;99.90;;;;;;5015389;28;20488;-54
2022/06/19 08:10:13;;;;;;;14.63;3.33;;;15.30;99.90;;;;;;5015382;28;20046;-54
2022/06/19 08:12:39;;;;;;;15.32;3.20;;;15.30;99.90;;;;;;5015664;28;20053;-54
2022/06/19 08:15:07;;;;;;;17.27;3.33;;;15.30;99.90;;;;;;5015324;28;20412;-50
2022/06/19 08:17:34;;;;;;;15.85;3.10;;;15.30;99.90;;;;;;5015084;28;20046;-49
2022/06/19 08:20:00;;;;;;;15.25;3.03;;;15.10;99.90;;;;;;5015199;28;20052;-54
2022/06/19 08:22:26;;;;;;;14.00;2.83;;;15.20;99.90;;;;;;5015300;28;20117;-53
2022/06/19 08:24:51;;;;;;;17.15;3.10;;;15.20;99.90;;;;;;5015434;28;20125;-51
2022/06/19 08:27:17;;;;;;;18.73;3.45;;;14.60;99.90;;;;;;5015152;28;20054;-51
2022/06/19 08:29:43;;;;;;;16.10;3.22;;;;;;;;;;5015236;28;20045;-51
2022/06/19 08:32:09;;;;;;;14.43;3.40;;;15.30;99.90;;;;;;5014850;28;20080;-53
2022/06/19 08:34:35;;;;;;;12.63;3.00;;;15.40;99.90;;;;;;5019247;28;20049;-52
2022/06/19 08:37:05;;;;;;;17.35;3.20;;;15.40;99.90;;;;;;5026930;28;20084;-51
2022/06/19 08:39:31;;;;;;;17.30;3.53;;;15.40;99.90;;;;;;5003055;28;20042;-53
2022/06/19 08:42:15;;;;;;;16.40;3.78;;;15.40;99.90;;;;;;4991567;28;20389;-53
2022/06/19 08:44:53;;;;;;;14.57;3.10;;;15.50;99.90;;;;;;5009267;28;20519;-52
2022/06/19 08:47:41;;;;;;;11.75;2.75;;;15.50;99.90;;;;;;5015184;28;20060;-58
2022/06/19 08:50:29;;;;;;;12.73;2.90;;;15.60;99.90;;;;;;5014790;28;20096;-58
2022/06/19 08:53:06;;;;;;;16.88;3.15;;;15.50;99.90;;;;;;4997044;28;20508;-59
2022/06/19 08:55:41;;;;;;;12.50;2.80;;;15.60;99.90;;;;;;5014734;28;20405;-57
2022/06/19 08:58:21;;;;;;;15.10;3.00;;;15.70;99.90;;;;;;5014672;28;20078;-57
2022/06/19 09:00:49;;;;;;;12.43;3.08;;;15.70;99.90;;;;;;5014653;28;20069;-58
2022/06/19 09:03:14;;;;;;;14.15;3.25;;;15.70;99.90;;;;;;5014189;28;20378;-57
2022/06/19 09:05:55;;;;;;;13.95;3.10;;;15.60;99.90;;;;;;5014778;28;20049;-58
2022/06/19 09:08:56;;;;;;;14.40;3.08;;;15.60;99.90;;;;;;5014706;28;20429;-58
2022/06/19 09:11:40;;;;;;;17.08;3.05;;;15.60;99.90;;;;;;5014375;28;20053;-53
2022/06/19 09:14:21;;;;;;;15.65;3.05;;;15.80;99.90;;;;;;4996661;28;20052;-54
2022/06/19 09:17:12;;;;;;;14.63;3.30;;;15.80;99.90;;;;;;5014458;28;20057;-53
2022/06/19 09:19:52;;;;;;;22.92;3.70;;;16.60;99.90;;;;;;4996770;28;20120;-53
2022/06/19 09:22:53;;;;;;;12.95;2.90;;;15.80;99.90;;;;;;4996773;28;20377;-53
2022/06/19 09:25:31;;;;;;;15.70;3.38;;;15.80;99.90;;;;;;5014115;28;20046;-53
2022/06/19 09:28:02;;;;;;;15.75;3.15;;;15.80;99.90;;;;;;4996467;28;20068;-52
2022/06/19 09:30:36;;;;;;;16.58;3.20;;;15.70;99.90;;;;;;5014083;28;20052;-53
2022/06/19 09:33:09;;;;;;;16.08;2.97;;;15.70;99.90;;;;;;5014284;28;20053;-52
2022/06/19 09:35:41;;;;;;;11.45;3.08;;;15.70;99.90;;;;;;5014128;28;20061;-53
2022/06/19 09:38:09;;;;;;;16.13;3.03;;;15.50;99.90;;;;;;4996325;28;20089;-54
2022/06/19 09:40:55;;;;;;;16.23;3.00;;;15.90;99.90;;;;;;5014098;28;20050;-54
2022/06/19 09:43:28;;;;;;;17.50;3.25;;;16.10;99.90;;;;;;5014056;28;20050;-51
2022/06/19 09:46:06;;;;;;;15.50;3.25;;;15.90;99.90;;;;;;4996199;28;20512;-53
2022/06/19 09:49:08;;;;;;;14.40;3.20;;;16.10;99.90;;;;;;5013820;28;20184;-52
2022/06/19 09:52:13;;;;;;;18.20;3.10;;;16.20;99.90;;;;;;5010742;28;20119;-51
2022/06/19 09:54:45;;;;;;;18.98;3.65;;;16.50;99.90;;;;;;5013588;28;20497;-52
2022/06/19 09:57:25;;;;;;;13.95;2.83;;;16.60;99.90;;;;;;5013580;28;20147;-54
2022/06/19 10:00:09;;;;;;;15.55;3.08;;;16.70;99.90;;;;;;5013634;28;20050;-51
2022/06/19 10:03:04;;;;;;;15.07;2.95;;;16.80;99.90;;;;;;4995845;28;20116;-53
2022/06/19 10:05:40;;;;;;;16.88;3.40;;;16.90;99.90;;;;;;5013489;28;20042;-52
2022/06/19 10:08:11;;;;;;;13.85;3.05;;;16.90;99.90;;;;;;5013362;28;20056;-52
2022/06/19 10:10:42;;;;;;;12.73;2.95;;;16.90;99.90;;;;;;5013718;28;20045;-53
2022/06/19 10:13:17;;;;;;;16.25;3.60;;;16.80;99.90;;;;;;5012794;28;20042;-51
2022/06/19 10:15:44;;;;;;;17.35;3.30;;;16.90;99.90;;;;;;5013554;28;20041;-54
2022/06/19 10:18:31;;;;;;;13.35;3.30;;;16.90;99.90;;;;;;5012514;28;20367;-51
2022/06/19 10:22:13;;;;;;;14.15;3.38;;;16.80;99.90;;;;;;5013323;28;20482;-53
2022/06/19 10:24:25;;;;;;;17.08;3.13;;;16.60;99.90;;;;;;5013069;28;20085;-53
2022/06/19 10:27:02;;;;;;;13.48;3.08;;;16.50;99.90;;;;;;5013225;28;20042;-53
2022/06/19 10:29:31;;;;;;;14.27;3.03;;;16.40;99.90;;;;;;5013036;28;20054;-52
2022/06/19 10:32:15;;;;;;;13.75;3.13;;;16.40;99.90;;;;;;5013289;28;20132;-53
2022/06/19 10:35:00;;;;;;;18.08;3.53;;;16.40;99.90;;;;;;5013286;28;20081;-53
2022/06/19 10:37:43;;;;;;;13.97;3.03;;;16.40;99.90;;;;;;5013221;28;20056;-53
2022/06/19 10:40:14;;;;;;;15.27;3.63;;;16.40;99.90;;;;;;5012793;28;20088;-54
2022/06/19 10:43:01;;;;;;;15.38;2.90;;;16.30;99.90;;;;;;5010096;28;20499;-54
2022/06/19 10:45:35;;;;;;;12.18;3.00;;;16.30;99.90;;;;;;5011331;28;20046;-53
2022/06/19 10:48:19;;;;;;;11.75;2.97;;;16.30;99.90;;;;;;4995850;28;20523;-53
2022/06/19 10:50:54;;;;;;;15.80;2.90;;;16.40;99.90;;;;;;5009978;28;20060;-52
2022/06/19 10:53:23;;;;;;;11.50;3.33;;;16.50;99.90;;;;;;4994171;28;20112;-53
2022/06/19 10:56:05;;;;;;;13.80;3.67;;;16.50;99.90;;;;;;4994430;28;20084;-55
2022/06/19 10:58:31;;;;;;;12.70;3.30;;;16.60;99.90;;;;;;5011769;28;20121;-54
2022/06/19 11:01:04;;;;;;;14.48;3.30;;;16.60;99.90;;;;;;5011728;28;20528;-53
2022/06/19 11:06:30;;;;;;;15.25;4.00;;;17.00;99.90;;;;;;4992113;28;20038;-54
2022/06/19 11:09:10;;;;;;;12.30;3.27;;;17.20;99.90;;;;;;4992587;28;20082;-53
2022/06/19 11:11:38;;;;;;;13.75;3.30;;;16.60;99.90;;;;;;4992428;28;20121;-52
2022/06/19 11:14:13;;;;;;;13.27;3.35;;;16.50;99.90;;;;;;4992587;28;20065;-54
2022/06/19 11:17:00;;;;;;;13.32;3.50;;;16.60;99.90;;;;;;4991190;28;20181;-54
2022/06/19 11:19:42;;;;;;;12.25;3.45;;;16.60;99.90;;;;;;4992134;28;20061;-58
2022/06/19 11:22:30;;;;;;;13.35;3.33;;;16.10;99.90;;;;;;4992111;28;20092;-53
2022/06/19 11:24:56;;;;;;;12.45;3.40;;;16.70;99.90;;;;;;4993584;28;20450;-53
2022/06/19 11:27:25;;;;;;;11.75;3.20;;;16.70;99.90;;;;;;4995280;28;20108;-54
2022/06/19 11:29:54;;;;;;;11.35;3.38;;;16.80;99.90;;;;;;5003816;28;20414;-54
2022/06/19 11:32:22;;;;;;;10.20;3.40;;;17.00;99.90;;;;;;5014635;28;20050;-55
2022/06/19 11:35:05;;;;;;;10.68;3.17;;;17.00;99.90;;;;;;5012649;28;20132;-55
2022/06/19 11:37:57;;;;;;;16.90;4.10;;;17.10;99.90;;;;;;5014265;28;20064;-54
2022/06/19 11:40:36;;;;;;;13.45;3.75;;;17.20;99.90;;;;;;5012840;28;20468;-54
2022/06/19 11:43:04;;;;;;;12.85;3.40;;;16.90;99.90;;;;;;5015102;28;20053;-54
2022/06/19 11:45:34;;;;;;;14.43;4.00;;;17.10;99.90;;;;;;5015044;28;20088;-54
2022/06/19 11:48:05;;;;;;;17.58;4.60;;;16.90;99.90;;;;;;5013402;28;20042;-54
2022/06/19 11:50:33;;;;;;;14.32;4.00;;;16.70;99.90;;;;;;5014671;28;20046;-53
2022/06/19 11:53:05;;;;;;;15.88;4.80;;;16.40;99.90;;;;;;5015588;28;20046;-52
2022/06/19 11:55:37;;;;;;;15.05;4.75;;;16.30;99.90;;;;;;5010925;28;20050;-54
2022/06/19 11:58:16;;;;;;;16.02;4.60;;;16.20;99.90;;;;;;5008470;28;20052;-54
2022/06/19 12:00:44;;;;;;;15.05;4.57;;;16.20;99.90;;;;;;5015840;28;20038;-54
2022/06/19 12:03:28;;;;;;;11.90;3.85;;;16.10;99.90;;;;;;5014017;28;20481;-54
2022/06/19 12:05:58;;;;;;;16.67;4.25;;;16.10;99.90;;;;;;5015064;28;20050;-54
2022/06/19 12:08:41;;;;;;;12.70;3.75;;;13.70;99.90;;;;;;5014557;28;20045;-52
2022/06/19 12:11:08;;;;;;;11.82;3.67;;;16.10;99.90;;;;;;5015496;28;20482;-53
2022/06/19 12:13:39;;;;;;;12.85;3.40;;;16.40;99.90;;;;;;5015004;28;20050;-54
2022/06/19 12:16:21;;;;;;;22.13;3.80;;;16.00;99.90;;;;;;4998141;28;20042;-54
2022/06/19 12:18:48;;;;;;;13.25;3.80;;;16.40;99.90;;;;;;5015296;28;20042;-54
2022/06/19 12:21:22;;;;;;;11.27;3.92;;;16.90;99.90;;;;;;5015412;28;20041;-54
2022/06/19 12:24:00;;;;;;;16.63;4.25;;;16.10;99.90;;;;;;5015517;28;20120;-55
2022/06/19 12:26:38;;;;;;;12.40;3.78;;;16.00;99.90;;;;;;5015380;28;20444;-51
2022/06/19 12:29:55;;;;;;;17.15;4.20;;;15.90;99.90;;;;;;5015615;28;20057;-54
2022/06/19 12:32:30;;;;;;;11.27;3.88;;;15.70;99.90;;;;;;4985055;28;20054;-53
2022/06/19 12:34:59;;;;;;;14.52;3.90;;;16.00;99.90;;;;;;4997199;28;20136;-54
2022/06/19 12:37:28;;;;;;;10.85;3.63;;;15.80;99.90;;;;;;5014923;28;20060;-53
2022/06/19 12:39:55;;;;;;;11.63;3.40;;;16.50;99.90;;;;;;5014788;28;20125;-54
2022/06/19 12:42:37;;;;;;;8.63;3.05;;;16.30;99.90;;;;;;4997368;28;20056;-55
2022/06/19 12:45:36;;;;;;;10.80;3.22;;;16.80;99.90;;;;;;5014914;28;20456;-54
2022/06/19 12:48:11;;;;;;;9.95;3.20;;;17.10;99.90;;;;;;4994770;28;20053;-58
2022/06/19 12:51:09;;;;;;;12.32;3.20;;;17.20;99.90;;;;;;5014861;28;20046;-58
2022/06/19 12:54:00;;;;;;;12.15;3.00;;;17.20;99.90;;;;;;5002803;28;20513;-59
2022/06/19 12:57:03;;;;;;;12.02;2.88;;;17.20;99.90;;;;;;5011715;28;20103;-59
2022/06/19 12:59:36;;;;;;;9.40;2.50;;;17.20;99.90;;;;;;5012001;28;20054;-59
2022/06/19 13:02:10;;;;;;;8.85;2.80;;;17.30;99.90;;;;;;5016015;28;20060;-58
2022/06/19 13:04:46;;;;;;;8.07;2.15;;;17.50;99.90;;;;;;5028079;28;20358;-60
2022/06/19 13:07:29;;;;;;;9.88;2.25;;;17.60;99.90;;;;;;4995139;28;20092;-59